In Rescue
 
Open Full Screen Window  High Contrast Mode
April 03, 2020 1:01 AM EDT
Weather Information
Wind Direction
  ---
Wind Speed
  00 kt (0 mph)
Wind Gust
  00 kt (0 mph)
Altimeter
30.11 in
Visibility
10 SM
Temperature
07° C
45° F
Dewpoint
02° C
36° F
Humidity
71%
1hr Rain Fall
00.00 in.
24hr Rain Fall
00.00 in.
Sky Condition
Clear
VFR

METAR KIRS 030501Z AUTO 00000KT 10SM CLR 07/02 A3011 RMK AO2 T00700015

FAA Disclaimer: The data displayed is for advisory purposes only and is not to be used for flight planning or operations.